PWSweather.com
Personal Weather Stations
Station Observations
KWAYELM6
Clearwood, Yelm, Yelm, WA 98597

Clearwood, YelmYelm, WA 98597

Lat: 46.82, Lon: -122.48

Elevation: 560

Station Type: Davis Vantage Vue

Latest ConditionsUpdated 12:15:00 PM PST Friday, Feb 12, 2016
Currently Today's Max Today's Min Today's Average
Temperature 49.6°F9.8°C 57.4°F14.1°C 48.6°F9.2°C 50.3°F10.2°C
Dew Point 49.1°F9.5°C 52.1°F11.2°C 47.9°F8.8°C 49.6°F9.8°C
Winds Calm Calm 3.0 mph WNW4.8 kmh WNW - 0.2 mph 0.3 kmh
Wind Gusts 1.0 mph1.6 kmh 8.0 mph12.9 kmh - -
Humidity 98% 99% 81% 97%
Pressure 30.14 in1020.7 mb 30.15 in1021.0 mb 30.05 in1017.6 mb -
Precipitation - 0.32 in8.1 mm - -
Hour Temp Dew Point Humidity Winds Wind Gusts Pressure Precip Precip Rate Daily Precip Total
12:15 PM 49.6°F9.8°C 49.1°F9.5°C 98% Calm Calm 1.0 mph1.6 kmh 30.14 in1020.7 mb 0.01 in0.3 mm 0.00 in0.0 mm 0.32 in8.1 mm
12:00 PM 49.3°F9.6°C 47.9°F8.8°C 95% Calm Calm 1.0 mph1.6 kmh 30.14 in1020.7 mb 0.02 in0.5 mm 0.00 in0.0 mm 0.32 in8.1 mm
11:45 AM 49.7°F9.8°C 48.6°F9.2°C 96% Calm Calm 1.0 mph1.6 kmh 30.15 in1021.0 mb 0.03 in0.8 mm 0.00 in0.0 mm 0.32 in8.1 mm
11:30 AM 49.9°F9.9°C 48.8°F9.3°C 96% Calm Calm 1.0 mph1.6 kmh 30.15 in1021.0 mb 0.03 in0.8 mm 0.00 in0.0 mm 0.31 in7.9 mm
11:15 AM 49.6°F9.8°C 48.8°F9.3°C 97% Calm Calm -- 30.14 in1020.7 mb 0.04 in1.0 mm 0.00 in0.0 mm 0.31 in7.9 mm
11:00 AM 50.0°F10.0°C 49.5°F9.7°C 98% Calm Calm 2.0 mph3.2 kmh 30.15 in1021.0 mb 0.04 in1.0 mm 0.00 in0.0 mm 0.30 in7.6 mm
10:45 AM 50.2°F10.1°C 49.4°F9.7°C 97% Calm Calm 2.0 mph3.2 kmh 30.14 in1020.7 mb 0.11 in2.8 mm 0.00 in0.0 mm 0.29 in7.4 mm
10:30 AM 50.3°F10.2°C 49.5°F9.7°C 97% Calm Calm 1.0 mph1.6 kmh 30.12 in1020.0 mb 0.19 in4.8 mm 0.04 in1.0 mm 0.28 in7.1 mm
10:15 AM 49.8°F9.9°C 48.7°F9.3°C 96% Calm Calm 4.0 mph6.4 kmh 30.11 in1019.6 mb 0.18 in4.6 mm 0.04 in1.0 mm 0.27 in6.9 mm
10:00 AM 50.8°F10.4°C 48.8°F9.3°C 93% 3.0 mph WNW4.8 kmh WNW 8.0 mph12.9 kmh 30.11 in1019.6 mb 0.17 in4.3 mm 0.12 in3.0 mm 0.26 in6.6 mm
09:45 AM 54.1°F12.3°C 52.1°F11.2°C 93% 3.0 mph WNW4.8 kmh WNW 6.0 mph9.7 kmh 30.11 in1019.6 mb 0.08 in2.0 mm 0.32 in8.1 mm 0.17 in4.3 mm
09:30 AM 57.4°F14.1°C 51.6°F10.9°C 81% 1.0 mph SSE1.6 kmh SSE 5.0 mph8.0 kmh 30.07 in1018.3 mb 0.00 in0.0 mm 0.00 in0.0 mm 0.09 in2.3 mm
09:15 AM 57.1°F13.9°C 52.0°F11.1°C 83% 1.0 mph SSE1.6 kmh SSE 5.0 mph8.0 kmh 30.06 in1017.9 mb 0.00 in0.0 mm 0.00 in0.0 mm 0.09 in2.3 mm
09:00 AM 55.0°F12.8°C 51.8°F11.0°C 89% Calm Calm 3.0 mph4.8 kmh 30.05 in1017.6 mb 0.00 in0.0 mm 0.00 in0.0 mm 0.09 in2.3 mm
08:45 AM 52.1°F11.2°C 51.8°F11.0°C 99% Calm Calm 2.0 mph3.2 kmh 30.05 in1017.6 mb 0.00 in0.0 mm 0.00 in0.0 mm 0.09 in2.3 mm
08:30 AM 50.9°F10.5°C 50.6°F10.3°C 99% Calm Calm 1.0 mph1.6 kmh 30.05 in1017.6 mb 0.00 in0.0 mm 0.00 in0.0 mm 0.09 in2.3 mm
08:15 AM 50.6°F10.3°C 50.3°F10.2°C 99% Calm Calm 3.0 mph4.8 kmh 30.06 in1017.9 mb 0.00 in0.0 mm 0.00 in0.0 mm 0.09 in2.3 mm
08:00 AM 50.7°F10.4°C 50.4°F10.2°C 99% Calm Calm 1.0 mph1.6 kmh 30.07 in1018.3 mb 0.00 in0.0 mm 0.00 in0.0 mm 0.09 in2.3 mm
07:45 AM 50.5°F10.3°C 50.2°F10.1°C 99% Calm Calm 2.0 mph3.2 kmh 30.07 in1018.3 mb 0.00 in0.0 mm 0.00 in0.0 mm 0.09 in2.3 mm
07:30 AM 50.9°F10.5°C 50.6°F10.3°C 99% Calm Calm 1.0 mph1.6 kmh 30.08 in1018.6 mb 0.00 in0.0 mm 0.00 in0.0 mm 0.09 in2.3 mm
07:15 AM 50.9°F10.5°C 50.6°F10.3°C 99% Calm Calm 1.0 mph1.6 kmh 30.07 in1018.3 mb 0.00 in0.0 mm 0.00 in0.0 mm 0.09 in2.3 mm
07:00 AM 51.0°F10.6°C 50.7°F10.4°C 99% Calm Calm 1.0 mph1.6 kmh 30.07 in1018.3 mb 0.00 in0.0 mm 0.00 in0.0 mm 0.09 in2.3 mm
06:45 AM 50.9°F10.5°C 50.6°F10.3°C 99% Calm Calm 1.0 mph1.6 kmh 30.08 in1018.6 mb 0.00 in0.0 mm 0.00 in0.0 mm 0.09 in2.3 mm
06:30 AM 51.5°F10.8°C 51.2°F10.7°C 99% Calm Calm 1.0 mph1.6 kmh 30.09 in1019.0 mb 0.00 in0.0 mm 0.00 in0.0 mm 0.09 in2.3 mm
06:15 AM 50.8°F10.4°C 50.5°F10.3°C 99% Calm Calm 1.0 mph1.6 kmh 30.09 in1019.0 mb 0.00 in0.0 mm 0.00 in0.0 mm 0.09 in2.3 mm
06:00 AM 50.3°F10.2°C 50.0°F10.0°C 99% Calm Calm 1.0 mph1.6 kmh 30.08 in1018.6 mb 0.00 in0.0 mm 0.00 in0.0 mm 0.09 in2.3 mm
05:45 AM 50.0°F10.0°C 49.7°F9.8°C 99% Calm Calm 1.0 mph1.6 kmh 30.08 in1018.6 mb 0.00 in0.0 mm 0.00 in0.0 mm 0.09 in2.3 mm
05:30 AM 50.0°F10.0°C 49.7°F9.8°C 99% Calm Calm 1.0 mph1.6 kmh 30.08 in1018.6 mb 0.00 in0.0 mm 0.00 in0.0 mm 0.09 in2.3 mm
05:15 AM 49.6°F9.8°C 49.3°F9.6°C 99% Calm Calm 1.0 mph1.6 kmh 30.08 in1018.6 mb 0.01 in0.3 mm 0.00 in0.0 mm 0.09 in2.3 mm
05:00 AM 49.8°F9.9°C 49.5°F9.7°C 99% Calm Calm 1.0 mph1.6 kmh 30.07 in1018.3 mb 0.01 in0.3 mm 0.00 in0.0 mm 0.09 in2.3 mm
04:45 AM 49.3°F9.6°C 49.0°F9.4°C 99% Calm Calm 2.0 mph3.2 kmh 30.08 in1018.6 mb 0.01 in0.3 mm 0.00 in0.0 mm 0.09 in2.3 mm
04:30 AM 49.6°F9.8°C 49.3°F9.6°C 99% Calm Calm 1.0 mph1.6 kmh 30.08 in1018.6 mb 0.01 in0.3 mm 0.04 in1.0 mm 0.09 in2.3 mm
04:15 AM 49.4°F9.7°C 49.1°F9.5°C 99% Calm Calm 1.0 mph1.6 kmh 30.09 in1019.0 mb 0.00 in0.0 mm 0.00 in0.0 mm 0.08 in2.0 mm
04:00 AM 49.4°F9.7°C 49.1°F9.5°C 99% Calm Calm -- 30.09 in1019.0 mb 0.00 in0.0 mm 0.00 in0.0 mm 0.08 in2.0 mm
03:45 AM 49.6°F9.8°C 49.3°F9.6°C 99% Calm Calm -- 30.09 in1019.0 mb 0.00 in0.0 mm 0.00 in0.0 mm 0.08 in2.0 mm
03:30 AM 49.3°F9.6°C 49.0°F9.4°C 99% Calm Calm -- 30.09 in1019.0 mb 0.01 in0.3 mm 0.00 in0.0 mm 0.08 in2.0 mm
03:15 AM 49.2°F9.6°C 48.9°F9.4°C 99% Calm Calm 1.0 mph1.6 kmh 30.09 in1019.0 mb 0.03 in0.8 mm 0.00 in0.0 mm 0.08 in2.0 mm
03:00 AM 49.2°F9.6°C 48.9°F9.4°C 99% Calm Calm -- 30.10 in1019.3 mb 0.04 in1.0 mm 0.00 in0.0 mm 0.08 in2.0 mm
02:45 AM 49.1°F9.5°C 48.8°F9.3°C 99% Calm Calm -- 30.11 in1019.6 mb 0.05 in1.3 mm 0.00 in0.0 mm 0.08 in2.0 mm
02:30 AM 49.1°F9.5°C 48.8°F9.3°C 99% Calm Calm -- 30.10 in1019.3 mb 0.05 in1.3 mm 0.04 in1.0 mm 0.07 in1.8 mm
02:15 AM 49.1°F9.5°C 48.8°F9.3°C 99% Calm Calm -- 30.10 in1019.3 mb 0.04 in1.0 mm 0.00 in0.0 mm 0.05 in1.3 mm
02:00 AM 49.1°F9.5°C 48.8°F9.3°C 99% Calm Calm 1.0 mph1.6 kmh 30.10 in1019.3 mb 0.04 in1.0 mm 0.01 in0.3 mm 0.04 in1.0 mm
01:45 AM 48.9°F9.4°C 48.6°F9.2°C 99% Calm Calm 1.0 mph1.6 kmh 30.10 in1019.3 mb 0.03 in0.8 mm 0.04 in1.0 mm 0.03 in0.8 mm
01:30 AM 48.9°F9.4°C 48.6°F9.2°C 99% Calm Calm -- 30.10 in1019.3 mb 0.02 in0.5 mm 0.04 in1.0 mm 0.02 in0.5 mm
01:15 AM 48.9°F9.4°C 48.6°F9.2°C 99% Calm Calm 1.0 mph1.6 kmh 30.10 in1019.3 mb 0.01 in0.3 mm 0.04 in1.0 mm 0.01 in0.3 mm
01:00 AM 48.9°F9.4°C 48.6°F9.2°C 99% 1.0 mph WNW1.6 kmh WNW 2.0 mph3.2 kmh 30.09 in1019.0 mb 0.00 in0.0 mm 0.00 in0.0 mm 0.01 in0.3 mm
12:45 AM 48.7°F9.3°C 48.4°F9.1°C 99% Calm Calm 1.0 mph1.6 kmh 30.08 in1018.6 mb 0.00 in0.0 mm 0.00 in0.0 mm 0.01 in0.3 mm
12:30 AM 48.6°F9.2°C 48.3°F9.1°C 99% Calm Calm -- 30.08 in1018.6 mb 0.00 in0.0 mm 0.00 in0.0 mm 0.01 in0.3 mm
12:15 AM 48.8°F9.3°C 48.5°F9.2°C 99% Calm Calm -- 30.07 in1018.3 mb 0.00 in0.0 mm 0.00 in0.0 mm 0.01 in0.3 mm
12:00 AM 48.9°F9.4°C 48.6°F9.2°C 99% Calm Calm -- 30.07 in1018.3 mb 0.01 in0.3 mm 0.00 in0.0 mm 0.01 in0.3 mm